Time;durP1;ratioP1;P1;durP2;ratioP2;P2;SDS_P1;SDS_P2;PMS_P1;PMS_P2;Temp;Humidity;BMP_temperature;BMP_pressure;BME280_temperature;BME280_humidity;BME280_pressure;Samples;Min_cycle;Max_cycle;Signal;HPM_P1;HPM_P2
2022/01/06 00:04:22;;;;;;;10.68;3.10;;;4.60;89.60;;;;;;5113660;28;20070;-81
2022/01/06 00:06:50;;;;;;;12.20;2.80;;;4.60;89.60;;;;;;5112484;28;20024;-81
2022/01/06 00:13:02;;;;;;;18.50;2.58;;;4.60;89.60;;;;;;5113568;28;20023;-82
2022/01/06 00:18:16;;;;;;;11.65;2.38;;;4.50;89.30;;;;;;5113548;28;20024;-81
2022/01/06 00:24:05;;;;;;;11.13;3.20;;;4.60;89.20;;;;;;5113118;28;20078;-77
2022/01/06 00:26:31;;;;;;;11.30;2.17;;;4.50;89.00;;;;;;5111760;28;20022;-77
2022/01/06 00:28:57;;;;;;;9.52;2.22;;;4.50;89.00;;;;;;5112968;28;20098;-77
2022/01/06 00:31:22;;;;;;;21.92;2.50;;;4.50;89.10;;;;;;5111714;28;20106;-76
2022/01/06 00:37:09;;;;;;;9.32;2.63;;;4.50;88.80;;;;;;5116900;28;20068;-77
2022/01/06 00:39:38;;;;;;;12.77;2.67;;;4.40;88.90;;;;;;5115848;28;20432;-77
2022/01/06 00:42:10;;;;;;;13.65;2.50;;;4.40;89.00;;;;;;5115816;28;20023;-80
2022/01/06 00:44:36;;;;;;;12.02;2.33;;;4.40;88.90;;;;;;5099162;28;20028;-79
2022/01/06 00:47:39;;;;;;;9.05;2.28;;;4.40;89.00;;;;;;5112953;28;20030;-80
2022/01/06 00:50:06;;;;;;;11.40;2.08;;;4.40;89.10;;;;;;5116474;28;20027;-79
2022/01/06 00:52:35;;;;;;;10.00;2.63;;;4.40;89.10;;;;;;5115290;28;20448;-79
2022/01/06 00:55:00;;;;;;;13.05;2.90;;;4.40;89.00;;;;;;5116774;28;20390;-80
2022/01/06 01:00:51;;;;;;;9.80;2.28;;;4.50;89.00;;;;;;5116887;28;20373;-80
2022/01/06 01:06:46;;;;;;;9.55;2.47;;;4.50;88.80;;;;;;5116596;28;20033;-80
2022/01/06 01:09:12;;;;;;;12.50;2.53;;;4.40;88.70;;;;;;5115298;28;20023;-76
2022/01/06 01:11:38;;;;;;;16.70;2.70;;;4.40;88.70;;;;;;5115076;28;20023;-76
2022/01/06 01:14:18;;;;;;;13.95;2.42;;;4.40;88.70;;;;;;5115144;28;20047;-76
2022/01/06 01:16:54;;;;;;;7.68;2.03;;;4.40;88.60;;;;;;5114708;28;20036;-76
2022/01/06 01:20:01;;;;;;;12.98;2.65;;;4.40;88.60;;;;;;5115097;28;20115;-76
2022/01/06 01:22:26;;;;;;;9.63;2.90;;;4.40;88.60;;;;;;5114640;28;20031;-76
2022/01/06 01:28:17;;;;;;;8.02;2.10;;;4.40;88.50;;;;;;5116253;28;20085;-76
2022/01/06 01:33:32;;;;;;;11.60;2.92;;;4.30;88.40;;;;;;5116280;28;20062;-76
2022/01/06 01:36:05;;;;;;;9.95;2.10;;;4.30;88.50;;;;;;5114688;28;20111;-76
2022/01/06 01:38:31;;;;;;;10.90;2.38;;;4.30;88.50;;;;;;5094274;28;20093;-76
2022/01/06 01:41:00;;;;;;;9.77;2.10;;;4.30;88.40;;;;;;5115854;28;20016;-76
2022/01/06 01:43:29;;;;;;;9.98;2.20;;;4.20;88.30;;;;;;5114790;28;20470;-75
2022/01/06 01:45:57;;;;;;;10.93;2.13;;;4.20;88.40;;;;;;5114121;28;20530;-75
2022/01/06 01:48:31;;;;;;;7.40;2.10;;;4.20;88.40;;;;;;5114432;28;20047;-76
2022/01/06 01:51:00;;;;;;;9.75;2.00;;;4.20;88.40;;;;;;5114248;28;20535;-76
2022/01/06 01:56:48;;;;;;;13.65;2.47;;;4.20;88.40;;;;;;5115751;28;20054;-77
2022/01/06 01:59:13;;;;;;;8.57;2.47;;;4.20;88.50;;;;;;5114407;28;20077;-81
2022/01/06 02:01:41;;;;;;;14.15;2.25;;;4.20;88.40;;;;;;5114265;28;20024;-81
2022/01/06 02:04:06;;;;;;;16.58;2.83;;;4.20;88.40;;;;;;5114057;28;20389;-81
2022/01/06 02:10:12;;;;;;;10.65;2.30;;;4.20;88.30;;;;;;5115705;28;20053;-81
2022/01/06 02:12:41;;;;;;;14.07;2.13;;;4.20;88.20;;;;;;5114129;28;20031;-81
2022/01/06 02:15:09;;;;;;;7.85;2.17;;;4.10;88.10;;;;;;5113955;28;20119;-81
2022/01/06 02:17:34;;;;;;;8.32;1.55;;;4.20;88.20;;;;;;5115471;28;20019;-80
2022/01/06 02:20:02;;;;;;;12.32;2.53;;;4.10;88.20;;;;;;5113974;28;20030;-81
2022/01/06 02:22:28;;;;;;;10.40;1.73;;;4.10;88.20;;;;;;5113714;28;20478;-81
2022/01/06 02:24:54;;;;;;;8.82;2.42;;;4.10;88.30;;;;;;5115086;28;20068;-80
2022/01/06 02:27:20;;;;;;;5.88;1.80;;;4.10;88.20;;;;;;5115012;28;20020;-81
2022/01/06 02:29:48;;;;;;;11.82;2.30;;;4.10;88.20;;;;;;5113717;28;20085;-81
2022/01/06 02:32:16;;;;;;;14.00;2.55;;;4.10;88.20;;;;;;5113797;28;20020;-80
2022/01/06 02:34:44;;;;;;;10.07;2.00;;;4.10;88.10;;;;;;5113593;28;20031;-77
2022/01/06 02:37:10;;;;;;;13.02;1.88;;;4.10;88.10;;;;;;5113516;28;20023;-76
2022/01/06 02:39:36;;;;;;;13.57;2.13;;;4.10;88.20;;;;;;5113412;28;20016;-77
2022/01/06 02:42:02;;;;;;;14.10;2.20;;;4.10;88.20;;;;;;5113509;28;20038;-81
2022/01/06 02:44:27;;;;;;;8.35;2.10;;;4.10;88.20;;;;;;5113384;28;20027;-80
2022/01/06 02:46:54;;;;;;;9.30;1.75;;;4.10;88.30;;;;;;5113409;28;20015;-80
2022/01/06 02:49:19;;;;;;;11.27;2.20;;;4.20;88.40;;;;;;5113532;28;20020;-80
2022/01/06 02:51:45;;;;;;;12.90;2.30;;;4.10;88.30;;;;;;5113327;28;20054;-80
2022/01/06 02:54:13;;;;;;;11.02;1.90;;;4.10;88.30;;;;;;5114652;28;20467;-80
2022/01/06 02:56:39;;;;;;;8.10;1.85;;;4.10;88.20;;;;;;5113623;28;20024;-80
2022/01/06 02:59:04;;;;;;;11.57;2.30;;;4.20;88.10;;;;;;5112225;28;20022;-80
2022/01/06 03:01:30;;;;;;;9.75;2.13;;;4.10;88.00;;;;;;5113131;28;20024;-81
2022/01/06 03:03:56;;;;;;;12.02;2.10;;;4.10;88.00;;;;;;5112998;28;20015;-81
2022/01/06 03:06:21;;;;;;;8.77;1.90;;;4.10;88.00;;;;;;5113047;28;20110;-76
2022/01/06 03:08:47;;;;;;;10.88;2.28;;;4.10;88.00;;;;;;5114213;28;20027;-76
2022/01/06 03:11:12;;;;;;;9.48;2.03;;;4.10;88.00;;;;;;5112814;28;20022;-76
2022/01/06 03:13:38;;;;;;;14.15;2.00;;;4.10;87.90;;;;;;5112817;28;20023;-76
2022/01/06 03:16:04;;;;;;;7.50;1.67;;;4.10;88.00;;;;;;5112547;28;20040;-76
2022/01/06 03:18:30;;;;;;;9.88;1.90;;;4.10;88.00;;;;;;5112688;28;20027;-76
2022/01/06 03:20:56;;;;;;;11.63;2.20;;;4.10;88.10;;;;;;5113040;28;20463;-76
2022/01/06 03:23:21;;;;;;;17.67;2.47;;;4.10;88.10;;;;;;5112535;28;20016;-76
2022/01/06 03:25:47;;;;;;;11.73;2.05;;;4.10;88.00;;;;;;5112501;28;20107;-76
2022/01/06 03:28:13;;;;;;;10.90;2.13;;;4.10;88.10;;;;;;5112422;28;20020;-76
2022/01/06 03:30:40;;;;;;;12.82;2.65;;;4.00;88.00;;;;;;5112445;28;20454;-76
2022/01/06 03:33:05;;;;;;;11.25;1.90;;;4.10;88.10;;;;;;5112297;28;20020;-76
2022/01/06 03:35:31;;;;;;;8.40;1.90;;;4.10;88.10;;;;;;5112295;28;20019;-76
2022/01/06 03:37:57;;;;;;;10.25;1.73;;;4.10;88.10;;;;;;5112185;28;20035;-76
2022/01/06 03:40:23;;;;;;;11.68;2.20;;;4.10;88.10;;;;;;5113501;28;20020;-76
2022/01/06 03:42:50;;;;;;;8.68;1.73;;;4.10;88.00;;;;;;5112216;28;20115;-76
2022/01/06 03:45:18;;;;;;;10.32;1.95;;;4.00;88.00;;;;;;5112080;28;20055;-76
2022/01/06 03:47:44;;;;;;;14.57;2.10;;;4.00;88.00;;;;;;5113407;28;20441;-76
2022/01/06 03:50:12;;;;;;;10.45;2.25;;;4.00;88.00;;;;;;5111954;28;20019;-77
2022/01/06 03:52:38;;;;;;;7.90;1.80;;;4.00;88.00;;;;;;5113411;28;20019;-76
2022/01/06 03:55:15;;;;;;;11.50;2.10;;;4.00;88.10;;;;;;5112013;28;20570;-76
2022/01/06 03:57:40;;;;;;;11.02;2.00;;;4.00;88.00;;;;;;5111972;28;20016;-76
2022/01/06 04:00:09;;;;;;;9.52;1.98;;;4.00;88.10;;;;;;5111943;28;20069;-76
2022/01/06 04:02:35;;;;;;;12.25;2.00;;;4.00;88.00;;;;;;5113307;28;20020;-76
2022/01/06 04:05:03;;;;;;;12.52;2.25;;;3.90;88.00;;;;;;5111989;28;20088;-76
2022/01/06 04:10:50;;;;;;;9.52;1.95;;;3.90;88.00;;;;;;5113106;28;20081;-76
2022/01/06 04:13:17;;;;;;;11.48;1.90;;;3.80;87.90;;;;;;5112001;28;20024;-79
2022/01/06 04:15:44;;;;;;;9.95;1.80;;;3.80;87.90;;;;;;5113160;28;20047;-76
2022/01/06 04:18:11;;;;;;;11.45;1.70;;;3.80;88.00;;;;;;5113096;28;20489;-76
2022/01/06 04:20:37;;;;;;;10.82;2.10;;;3.80;88.00;;;;;;5111687;28;20023;-76
2022/01/06 04:23:02;;;;;;;9.18;2.13;;;3.80;88.60;;;;;;5113113;28;20050;-75
2022/01/06 04:25:28;;;;;;;9.02;2.30;;;3.80;88.00;;;;;;5111629;28;20019;-76
2022/01/06 04:27:54;;;;;;;12.63;2.13;;;3.80;87.90;;;;;;5111584;28;20363;-76
2022/01/06 04:30:20;;;;;;;13.20;2.05;;;3.80;88.00;;;;;;5111804;28;20020;-76
2022/01/06 04:32:45;;;;;;;7.07;1.40;;;3.80;88.00;;;;;;5111682;28;20414;-76
2022/01/06 04:35:12;;;;;;;11.63;1.88;;;3.80;88.00;;;;;;5111741;28;20023;-76
2022/01/06 04:37:38;;;;;;;10.38;1.83;;;3.80;88.10;;;;;;5111674;28;20030;-76
2022/01/06 04:40:06;;;;;;;8.75;1.95;;;3.80;88.10;;;;;;5111647;28;20410;-76
2022/01/06 04:42:32;;;;;;;9.98;1.90;;;3.70;88.10;;;;;;5111962;28;20016;-76
2022/01/06 04:44:58;;;;;;;15.15;2.45;;;3.70;88.10;;;;;;5111591;28;20031;-76
2022/01/06 04:47:23;;;;;;;9.93;1.42;;;3.80;88.20;;;;;;5111653;28;20018;-76
2022/01/06 04:49:49;;;;;;;7.38;1.42;;;3.70;88.20;;;;;;5111519;28;20020;-79
2022/01/06 04:52:14;;;;;;;10.85;1.90;;;3.70;88.20;;;;;;5111471;28;20034;-76
2022/01/06 04:54:40;;;;;;;12.43;1.90;;;3.70;88.20;;;;;;5111625;28;20458;-76
2022/01/06 04:57:06;;;;;;;13.32;1.85;;;3.70;88.30;;;;;;5112742;28;20024;-76
2022/01/06 04:59:31;;;;;;;11.63;2.05;;;3.70;88.30;;;;;;5111485;28;20024;-76
2022/01/06 05:01:58;;;;;;;10.68;2.00;;;3.70;88.30;;;;;;5111477;28;20459;-79
2022/01/06 05:04:24;;;;;;;12.00;1.80;;;3.70;88.30;;;;;;5111091;28;20410;-79
2022/01/06 05:06:53;;;;;;;6.55;1.60;;;3.70;88.30;;;;;;5111478;28;20024;-79
2022/01/06 05:12:44;;;;;;;7.30;2.38;;;3.70;88.40;;;;;;5112763;28;20014;-79
2022/01/06 05:15:11;;;;;;;8.27;2.03;;;3.60;88.40;;;;;;5108212;28;20128;-79
2022/01/06 05:17:37;;;;;;;4.68;1.70;;;3.70;88.50;;;;;;5111384;28;20123;-76
2022/01/06 05:20:04;;;;;;;10.07;2.38;;;3.70;88.50;;;;;;5111152;28;20107;-79
2022/01/06 05:22:31;;;;;;;9.10;1.83;;;3.70;88.50;;;;;;5113815;28;20019;-79
2022/01/06 05:24:57;;;;;;;10.00;2.08;;;3.60;88.40;;;;;;5115018;28;20340;-81
2022/01/06 05:27:22;;;;;;;7.00;1.50;;;3.60;88.50;;;;;;5115053;28;20364;-81
2022/01/06 05:29:48;;;;;;;12.65;1.88;;;3.60;88.50;;;;;;5114956;28;20033;-80
2022/01/06 05:32:14;;;;;;;9.85;1.85;;;3.60;88.50;;;;;;5112017;28;20024;-81
2022/01/06 05:34:39;;;;;;;10.70;1.80;;;3.60;88.50;;;;;;5115264;28;20111;-80
2022/01/06 05:37:05;;;;;;;13.07;2.05;;;3.60;88.50;;;;;;5116048;28;20412;-81
2022/01/06 05:39:30;;;;;;;10.55;1.83;;;3.70;88.50;;;;;;5114876;28;20031;-80
2022/01/06 05:41:56;;;;;;;10.85;2.00;;;3.60;88.50;;;;;;5114793;28;20486;-80
2022/01/06 05:44:22;;;;;;;14.38;1.95;;;3.60;88.50;;;;;;5114667;28;20051;-80
2022/01/06 05:46:47;;;;;;;7.95;1.77;;;3.60;88.50;;;;;;5111652;28;20028;-80
2022/01/06 05:49:14;;;;;;;13.60;2.03;;;3.60;89.10;;;;;;5114541;28;20012;-80
2022/01/06 05:51:40;;;;;;;10.05;2.00;;;3.60;88.50;;;;;;5114534;28;20027;-81
2022/01/06 05:54:06;;;;;;;5.50;1.48;;;3.60;88.60;;;;;;5116022;28;20030;-80
2022/01/06 05:56:32;;;;;;;12.68;2.00;;;3.60;88.60;;;;;;5114426;28;20032;-80
2022/01/06 05:58:57;;;;;;;6.65;2.00;;;3.60;88.60;;;;;;5114457;28;20023;-80
2022/01/06 06:01:23;;;;;;;6.85;1.50;;;3.60;88.60;;;;;;5114329;28;20019;-81
2022/01/06 06:03:49;;;;;;;10.57;1.70;;;3.60;88.70;;;;;;5115506;28;20563;-81
2022/01/06 06:06:15;;;;;;;6.82;1.58;;;3.60;88.80;;;;;;5114276;28;20475;-80
2022/01/06 06:08:40;;;;;;;8.80;1.98;;;3.60;88.80;;;;;;5114289;28;20103;-78
2022/01/06 06:11:07;;;;;;;9.48;2.20;;;3.60;88.80;;;;;;5114143;28;20423;-79
2022/01/06 06:13:32;;;;;;;16.75;2.47;;;3.50;88.70;;;;;;5097017;28;20028;-79
2022/01/06 06:15:58;;;;;;;10.18;1.65;;;3.50;88.70;;;;;;5113723;28;20055;-80
2022/01/06 06:18:24;;;;;;;7.78;1.77;;;3.50;88.70;;;;;;5114006;28;20023;-79
2022/01/06 06:20:49;;;;;;;8.95;2.22;;;3.50;88.80;;;;;;5114004;28;20176;-80
2022/01/06 06:23:15;;;;;;;8.82;1.38;;;3.50;88.80;;;;;;5111006;28;20031;-79
2022/01/06 06:25:44;;;;;;;10.30;1.98;;;3.40;88.80;;;;;;5113977;28;20019;-79
2022/01/06 06:28:11;;;;;;;8.38;2.28;;;3.50;88.90;;;;;;5113981;28;20521;-80
2022/01/06 06:30:37;;;;;;;8.15;1.65;;;3.50;88.90;;;;;;5113915;28;20020;-79
2022/01/06 06:33:03;;;;;;;11.02;2.00;;;3.40;88.80;;;;;;5115052;28;20030;-79
2022/01/06 06:38:50;;;;;;;9.27;1.70;;;3.40;89.00;;;;;;5115075;28;20022;-79
2022/01/06 06:41:17;;;;;;;8.90;1.60;;;3.40;89.00;;;;;;5115144;28;20382;-79
2022/01/06 06:43:44;;;;;;;8.95;2.22;;;3.40;89.00;;;;;;5074969;28;20048;-79
2022/01/06 06:46:11;;;;;;;7.93;2.10;;;3.40;89.10;;;;;;5092376;28;20036;-79
2022/01/06 06:51:58;;;;;;;8.60;1.60;;;3.40;89.20;;;;;;5092393;28;20018;-79
2022/01/06 06:54:25;;;;;;;11.65;2.05;;;3.30;89.10;;;;;;5086459;28;20534;-79
2022/01/06 06:57:22;;;;;;;7.70;2.03;;;3.30;89.20;;;;;;5092128;28;20043;-79
2022/01/06 06:59:48;;;;;;;9.68;1.70;;;3.30;89.30;;;;;;5075007;28;20038;-79
2022/01/06 07:02:14;;;;;;;8.82;1.90;;;3.30;89.30;;;;;;5074845;28;20472;-79
2022/01/06 07:04:39;;;;;;;11.50;1.98;;;3.30;89.30;;;;;;5071857;28;20079;-79
2022/01/06 07:07:05;;;;;;;8.10;1.50;;;3.30;89.30;;;;;;5091832;28;20028;-79
2022/01/06 07:09:30;;;;;;;7.03;2.05;;;3.30;89.30;;;;;;5074716;28;20024;-79
2022/01/06 07:11:56;;;;;;;6.50;1.70;;;3.30;89.40;;;;;;5074758;28;20039;-79
2022/01/06 07:14:23;;;;;;;7.82;1.95;;;3.30;89.40;;;;;;5074393;28;20527;-80
2022/01/06 07:16:50;;;;;;;6.68;2.17;;;3.30;89.50;;;;;;5071971;28;20044;-79
2022/01/06 07:19:16;;;;;;;9.05;2.42;;;3.20;89.40;;;;;;5088913;28;20066;-79
2022/01/06 07:21:42;;;;;;;9.20;2.50;;;3.20;89.40;;;;;;5074595;28;20151;-80
2022/01/06 07:24:51;;;;;;;5.05;1.88;;;3.20;89.50;;;;;;5074575;28;20525;-79
2022/01/06 07:27:17;;;;;;;5.80;2.40;;;3.30;89.60;;;;;;5086428;28;20032;-79
2022/01/06 07:29:45;;;;;;;5.78;2.10;;;3.20;89.50;;;;;;5112758;28;20437;-80
2022/01/06 07:32:10;;;;;;;6.30;2.05;;;3.20;89.50;;;;;;5074182;28;20669;-80
2022/01/06 07:34:36;;;;;;;9.93;2.10;;;3.20;89.60;;;;;;5074053;28;20131;-76
2022/01/06 07:37:02;;;;;;;7.38;2.40;;;3.20;89.60;;;;;;5074022;28;20150;-76
2022/01/06 07:39:28;;;;;;;8.52;2.30;;;3.20;89.70;;;;;;5091492;28;20082;-82
2022/01/06 07:41:54;;;;;;;10.20;2.42;;;3.20;89.70;;;;;;5075614;28;20028;-81
2022/01/06 07:44:19;;;;;;;9.30;2.22;;;3.20;89.70;;;;;;5071972;28;20067;-82
2022/01/06 07:46:47;;;;;;;6.05;2.00;;;3.20;89.70;;;;;;5074922;28;20035;-82
2022/01/06 07:49:12;;;;;;;11.27;2.92;;;3.20;89.80;;;;;;5074663;28;20165;-82
2022/01/06 07:51:38;;;;;;;10.90;3.15;;;3.20;89.80;;;;;;5092081;28;20119;-82
2022/01/06 07:54:04;;;;;;;16.60;4.35;;;3.20;89.80;;;;;;5074906;28;20035;-82
2022/01/06 07:56:30;;;;;;;12.15;3.60;;;3.20;89.80;;;;;;5074890;28;20024;-82
2022/01/06 07:58:56;;;;;;;14.63;3.67;;;3.20;89.80;;;;;;5074853;28;20028;-81
2022/01/06 08:01:22;;;;;;;15.75;3.70;;;3.20;89.80;;;;;;5074838;28;20042;-83
2022/01/06 08:03:50;;;;;;;10.50;3.15;;;3.30;89.90;;;;;;5075463;28;20561;-82
2022/01/06 08:06:16;;;;;;;9.45;3.20;;;3.30;90.00;;;;;;5074216;28;20024;-77
2022/01/06 08:08:42;;;;;;;9.27;2.75;;;3.30;89.80;;;;;;5073581;28;20553;-77
2022/01/06 08:11:07;;;;;;;7.32;2.97;;;3.30;89.80;;;;;;5073597;28;20024;-78
2022/01/06 08:13:33;;;;;;;8.80;2.67;;;3.30;89.90;;;;;;5073614;28;20028;-77
2022/01/06 08:16:00;;;;;;;7.07;2.53;;;3.30;89.90;;;;;;5090855;28;20483;-77
2022/01/06 08:18:25;;;;;;;9.43;2.60;;;3.30;89.80;;;;;;5111722;28;20026;-77
2022/01/06 08:20:51;;;;;;;8.27;2.35;;;3.30;89.80;;;;;;5111723;28;20110;-77
2022/01/06 08:23:17;;;;;;;8.65;2.70;;;3.30;89.80;;;;;;5111836;28;20031;-77
2022/01/06 08:25:42;;;;;;;9.18;2.58;;;3.40;89.80;;;;;;5111645;28;20028;-78
2022/01/06 08:28:08;;;;;;;9.75;2.47;;;3.40;89.80;;;;;;5111920;28;20104;-77
2022/01/06 08:30:34;;;;;;;10.23;2.53;;;3.40;89.70;;;;;;5111621;28;20389;-78
2022/01/06 08:33:01;;;;;;;8.13;2.22;;;3.40;89.70;;;;;;5111691;28;20494;-77
2022/01/06 08:35:27;;;;;;;9.38;2.65;;;3.50;89.80;;;;;;5111516;28;20213;-77
2022/01/06 08:37:53;;;;;;;9.43;2.75;;;3.50;89.70;;;;;;5111455;28;20027;-78
2022/01/06 08:40:19;;;;;;;11.75;3.58;;;3.50;89.70;;;;;;5111549;28;20031;-77
2022/01/06 08:42:48;;;;;;;9.07;2.80;;;3.50;89.60;;;;;;5111700;28;20035;-78
2022/01/06 08:45:14;;;;;;;8.13;3.00;;;3.50;89.70;;;;;;5111555;28;20125;-78
2022/01/06 08:47:40;;;;;;;13.60;3.38;;;3.50;89.60;;;;;;5111487;28;20023;-77
2022/01/06 08:50:07;;;;;;;7.80;2.75;;;3.50;89.60;;;;;;5111249;28;20111;-78
2022/01/06 08:52:34;;;;;;;11.43;2.83;;;3.60;89.70;;;;;;5111589;28;20419;-78
2022/01/06 08:55:00;;;;;;;8.07;2.65;;;3.60;89.60;;;;;;5112833;28;20098;-78
2022/01/06 08:57:26;;;;;;;11.75;2.70;;;3.60;89.60;;;;;;5113915;28;20462;-78
2022/01/06 08:59:52;;;;;;;10.73;2.80;;;3.70;89.60;;;;;;5115344;28;20097;-78
2022/01/06 09:02:17;;;;;;;9.55;2.55;;;3.70;89.50;;;;;;5115395;28;20122;-77
2022/01/06 09:04:43;;;;;;;9.32;2.58;;;3.70;89.50;;;;;;5115173;28;20545;-77
2022/01/06 09:07:09;;;;;;;6.95;2.30;;;3.70;89.50;;;;;;5115131;28;20012;-77
2022/01/06 09:09:34;;;;;;;10.40;2.88;;;3.80;89.50;;;;;;5115287;28;20015;-77
2022/01/06 09:12:00;;;;;;;10.13;3.20;;;3.80;89.50;;;;;;5115322;28;20016;-77
2022/01/06 09:14:26;;;;;;;12.02;2.95;;;3.80;89.40;;;;;;5114992;28;20527;-77
2022/01/06 09:16:54;;;;;;;7.05;2.97;;;3.80;89.30;;;;;;5115057;28;20027;-77
2022/01/06 09:19:21;;;;;;;10.27;3.63;;;3.80;89.30;;;;;;5114959;28;20039;-80
2022/01/06 09:21:47;;;;;;;11.43;3.03;;;3.80;89.20;;;;;;5115068;28;20023;-80
2022/01/06 09:24:13;;;;;;;9.80;3.67;;;3.80;89.30;;;;;;5111943;28;20411;-82
2022/01/06 09:26:39;;;;;;;9.68;3.45;;;3.80;89.30;;;;;;5115300;28;20020;-82
2022/01/06 09:29:08;;;;;;;11.30;4.18;;;3.90;89.30;;;;;;5115186;28;20022;-82
2022/01/06 09:31:36;;;;;;;12.05;4.60;;;3.90;89.30;;;;;;5115341;28;20016;-82
2022/01/06 09:34:02;;;;;;;12.52;5.05;;;3.90;89.30;;;;;;5115099;28;20023;-81
2022/01/06 09:36:28;;;;;;;15.10;5.28;;;4.00;89.30;;;;;;5115043;28;20089;-81
2022/01/06 09:38:55;;;;;;;14.07;5.35;;;4.00;89.20;;;;;;5116218;28;20020;-81
2022/01/06 09:41:22;;;;;;;16.58;7.13;;;4.00;89.20;;;;;;5114806;28;20024;-75
2022/01/06 09:43:53;;;;;;;20.27;7.85;;;4.10;89.30;;;;;;5114382;28;20019;-77
2022/01/06 09:46:20;;;;;;;12.93;7.28;;;4.10;89.20;;;;;;5114411;28;20383;-76
2022/01/06 09:48:47;;;;;;;18.83;7.28;;;4.10;89.20;;;;;;5114614;28;20119;-80
2022/01/06 09:51:14;;;;;;;18.20;7.53;;;4.20;89.10;;;;;;5114224;28;20024;-77
2022/01/06 09:57:02;;;;;;;14.23;5.57;;;4.30;89.00;;;;;;5115693;28;20137;-77
2022/01/06 09:59:28;;;;;;;9.27;4.10;;;4.30;88.90;;;;;;5115793;28;20065;-77
2022/01/06 10:01:54;;;;;;;12.98;4.40;;;4.30;88.70;;;;;;5114322;28;20470;-78
2022/01/06 10:04:27;;;;;;;9.15;2.92;;;4.40;88.70;;;;;;5111202;28;20404;-79
2022/01/06 10:07:07;;;;;;;8.57;3.00;;;4.30;88.50;;;;;;5114133;28;20371;-76
2022/01/06 10:09:35;;;;;;;10.52;2.55;;;4.30;88.50;;;;;;5111114;28;20032;-78
2022/01/06 10:15:25;;;;;;;7.55;2.45;;;4.30;88.60;;;;;;5115089;28;20050;-79
2022/01/06 10:17:51;;;;;;;7.40;2.35;;;4.40;88.60;;;;;;5113946;28;20502;-79
2022/01/06 10:20:23;;;;;;;6.65;2.50;;;4.40;88.50;;;;;;5114086;28;20489;-79
2022/01/06 10:22:51;;;;;;;8.63;2.83;;;4.50;88.50;;;;;;5113875;28;20032;-78
2022/01/06 10:25:22;;;;;;;9.32;3.03;;;4.60;88.50;;;;;;5113935;28;20507;-82
2022/01/06 10:27:49;;;;;;;8.05;3.08;;;4.60;88.30;;;;;;5115326;28;20455;-79
2022/01/06 10:30:16;;;;;;;7.68;3.00;;;4.70;88.30;;;;;;5114304;28;20492;-81
2022/01/06 10:32:43;;;;;;;6.65;3.20;;;4.80;88.20;;;;;;5114934;28;20028;-78
2022/01/06 10:35:10;;;;;;;11.18;2.33;;;4.80;88.20;;;;;;5113818;28;20110;-82
2022/01/06 10:37:42;;;;;;;6.60;2.50;;;4.80;88.10;;;;;;5113761;28;20074;-77
2022/01/06 10:40:10;;;;;;;11.38;2.42;;;4.90;88.20;;;;;;5113817;28;20151;-76
2022/01/06 10:42:39;;;;;;;9.52;2.35;;;5.00;88.00;;;;;;5113476;28;20034;-75
2022/01/06 10:45:10;;;;;;;7.93;2.25;;;5.10;88.00;;;;;;5115350;28;20031;-83
2022/01/06 10:47:39;;;;;;;5.30;2.10;;;5.10;87.80;;;;;;5115417;28;20055;-82
2022/01/06 10:50:15;;;;;;;8.27;2.60;;;5.20;87.70;;;;;;5113970;28;20069;-81
2022/01/06 10:52:43;;;;;;;6.93;2.40;;;5.30;87.60;;;;;;5114426;28;20024;-82
2022/01/06 10:55:25;;;;;;;10.77;3.00;;;5.30;87.50;;;;;;5115375;28;20035;-82
2022/01/06 10:58:01;;;;;;;5.05;2.47;;;5.30;87.40;;;;;;5114645;28;20038;-81
2022/01/06 11:00:36;;;;;;;11.93;3.00;;;5.30;87.40;;;;;;5115955;28;20031;-83
2022/01/06 11:03:16;;;;;;;13.82;2.50;;;5.40;87.20;;;;;;5117025;28;20062;-83
2022/01/06 11:05:46;;;;;;;7.32;2.45;;;5.40;87.10;;;;;;5116538;28;20034;-82
2022/01/06 11:08:16;;;;;;;8.30;2.40;;;5.40;87.10;;;;;;5116135;28;20063;-82
2022/01/06 11:11:30;;;;;;;7.40;2.30;;;5.40;87.10;;;;;;5116519;28;20348;-82
2022/01/06 11:13:36;;;;;;;8.60;2.30;;;5.40;87.10;;;;;;5111522;28;20114;-81
2022/01/06 11:16:03;;;;;;;6.93;2.20;;;5.40;87.10;;;;;;5115488;28;20051;-83
2022/01/06 11:21:52;;;;;;;9.35;2.72;;;5.50;87.10;;;;;;5123399;28;20119;-84
2022/01/06 11:24:24;;;;;;;6.75;2.17;;;5.50;87.00;;;;;;5125189;28;20032;-83
2022/01/06 11:30:15;;;;;;;8.20;2.05;;;5.60;86.90;;;;;;5122473;28;20041;-81
2022/01/06 11:32:42;;;;;;;7.68;2.42;;;5.60;86.90;;;;;;5114393;28;20497;-81
2022/01/06 11:35:15;;;;;;;8.80;2.03;;;5.60;86.80;;;;;;5113601;28;20032;-82
2022/01/06 11:37:49;;;;;;;5.75;2.17;;;5.70;86.90;;;;;;5115841;28;20027;-83
2022/01/06 11:40:29;;;;;;;5.53;1.90;;;5.70;86.70;;;;;;5115235;28;20458;-82
2022/01/06 11:42:57;;;;;;;6.68;1.92;;;5.70;86.70;;;;;;5115669;28;20498;-81
2022/01/06 11:45:24;;;;;;;6.80;2.40;;;5.80;86.70;;;;;;5111819;28;20031;-82
2022/01/06 11:48:01;;;;;;;8.57;2.30;;;5.80;86.60;;;;;;5114480;28;20016;-81
2022/01/06 11:50:35;;;;;;;11.30;2.38;;;5.80;86.50;;;;;;5114505;28;20077;-82
2022/01/06 11:53:04;;;;;;;8.15;2.28;;;5.90;86.50;;;;;;5117555;28;20020;-85
2022/01/06 11:55:42;;;;;;;9.40;2.50;;;5.90;86.30;;;;;;5117153;28;20027;-85
2022/01/06 12:01:47;;;;;;;7.07;2.53;;;6.00;85.60;;;;;;5118774;28;20042;-85
2022/01/06 12:04:21;;;;;;;12.15;2.63;;;6.00;85.50;;;;;;5116754;28;20027;-85
2022/01/06 12:07:01;;;;;;;7.90;2.20;;;6.00;85.50;;;;;;5116342;28;20024;-84
2022/01/06 12:09:30;;;;;;;10.63;2.78;;;5.90;85.50;;;;;;5112996;28;20016;-82
2022/01/06 12:12:04;;;;;;;6.35;2.30;;;6.00;85.60;;;;;;5112146;28;20034;-82
2022/01/06 12:14:33;;;;;;;8.88;2.38;;;6.00;85.70;;;;;;5112379;28;20043;-81
2022/01/06 12:17:07;;;;;;;11.52;2.60;;;6.10;85.80;;;;;;5112025;28;20020;-80
2022/01/06 12:19:33;;;;;;;9.27;2.33;;;6.10;85.70;;;;;;5112041;28;20501;-81
2022/01/06 12:21:59;;;;;;;10.82;2.53;;;6.10;85.60;;;;;;5112111;28;20068;-80
2022/01/06 12:24:25;;;;;;;10.63;2.60;;;6.20;85.80;;;;;;5113279;28;20020;-81
2022/01/06 12:26:51;;;;;;;10.23;2.70;;;6.30;85.80;;;;;;5112154;28;20053;-81
2022/01/06 12:29:19;;;;;;;9.82;2.80;;;6.30;85.80;;;;;;5113554;28;20065;-79
2022/01/06 12:31:49;;;;;;;9.68;2.70;;;6.30;85.80;;;;;;5112217;28;20050;-81
2022/01/06 12:34:15;;;;;;;6.80;2.70;;;6.40;85.80;;;;;;5113201;28;20122;-81
2022/01/06 12:36:44;;;;;;;6.97;2.53;;;6.50;85.80;;;;;;5117789;28;20028;-81
2022/01/06 12:42:40;;;;;;;10.68;2.80;;;6.60;85.70;;;;;;5117431;28;20023;-81
2022/01/06 12:45:06;;;;;;;8.30;2.55;;;6.60;85.40;;;;;;5117246;28;20494;-81
2022/01/06 12:50:54;;;;;;;9.63;2.80;;;6.70;85.30;;;;;;5117104;28;20524;-81
2022/01/06 12:53:25;;;;;;;6.63;2.60;;;6.80;85.20;;;;;;5116058;28;20016;-81
2022/01/06 12:55:50;;;;;;;7.32;2.22;;;6.80;85.20;;;;;;5116201;28;20487;-81
2022/01/06 13:01:42;;;;;;;6.50;2.25;;;6.80;85.10;;;;;;5118647;28;20060;-81
2022/01/06 13:07:30;;;;;;;7.50;2.60;;;6.90;84.90;;;;;;5118706;28;20026;-82
2022/01/06 13:10:00;;;;;;;8.02;2.10;;;6.90;84.90;;;;;;5117085;28;20114;-80
2022/01/06 13:12:29;;;;;;;5.75;1.83;;;6.90;84.90;;;;;;5115595;28;20019;-78
2022/01/06 13:14:55;;;;;;;7.90;2.10;;;6.90;84.90;;;;;;5117071;28;20056;-79
2022/01/06 13:17:31;;;;;;;6.45;2.05;;;7.00;84.70;;;;;;5116630;28;20055;-78
2022/01/06 13:20:11;;;;;;;8.63;2.70;;;7.10;84.80;;;;;;5113395;28;20036;-79
2022/01/06 13:25:35;;;;;;;5.70;2.10;;;7.30;84.60;;;;;;5116256;28;20039;-79
2022/01/06 13:28:50;;;;;;;8.35;2.60;;;7.40;84.40;;;;;;5115169;28;20028;-80
2022/01/06 13:31:21;;;;;;;5.72;1.73;;;7.50;84.20;;;;;;5114863;28;20495;-78
2022/01/06 13:33:54;;;;;;;9.07;2.22;;;7.60;83.90;;;;;;5114948;28;20055;-78
2022/01/06 13:36:27;;;;;;;8.85;2.15;;;7.70;83.80;;;;;;5114798;28;20551;-78
2022/01/06 13:38:52;;;;;;;9.52;2.25;;;7.70;83.30;;;;;;5114779;28;20028;-77
2022/01/06 13:41:24;;;;;;;7.82;2.55;;;7.70;83.20;;;;;;5114618;28;20131;-77
2022/01/06 13:43:56;;;;;;;7.53;2.47;;;7.70;82.30;;;;;;5113900;28;20463;-77
2022/01/06 13:46:24;;;;;;;8.43;2.42;;;7.70;82.60;;;;;;5114787;28;20113;-77
2022/01/06 13:51:37;;;;;;;9.30;2.25;;;7.70;82.50;;;;;;5116067;28;20035;-77
2022/01/06 13:54:10;;;;;;;7.63;1.90;;;7.70;82.60;;;;;;5114466;28;20020;-76
2022/01/06 13:56:37;;;;;;;6.95;1.70;;;7.80;82.40;;;;;;5114509;28;20019;-76
2022/01/06 13:59:11;;;;;;;9.32;2.30;;;7.70;82.30;;;;;;5114359;28;20028;-76
2022/01/06 14:01:38;;;;;;;12.98;2.40;;;7.70;82.50;;;;;;5114361;28;20023;-77
2022/01/06 14:04:05;;;;;;;11.18;2.10;;;7.60;82.30;;;;;;5113942;28;20023;-77
2022/01/06 14:06:32;;;;;;;8.90;2.08;;;7.60;82.50;;;;;;5114208;28;20390;-77
2022/01/06 14:08:58;;;;;;;11.10;2.80;;;7.60;82.30;;;;;;5115453;28;20077;-77
2022/01/06 14:11:27;;;;;;;9.02;2.33;;;7.50;82.00;;;;;;5114167;28;20023;-77
2022/01/06 14:13:54;;;;;;;11.38;2.92;;;7.50;82.10;;;;;;5113929;28;20568;-77
2022/01/06 14:16:19;;;;;;;7.22;2.10;;;7.50;81.90;;;;;;5113890;28;20054;-77
2022/01/06 14:18:45;;;;;;;7.22;1.90;;;7.50;81.70;;;;;;5113841;28;20123;-77
2022/01/06 14:21:11;;;;;;;9.32;1.80;;;7.50;81.80;;;;;;5113918;28;20078;-77
2022/01/06 14:23:37;;;;;;;9.10;1.90;;;7.50;81.50;;;;;;5113782;28;20051;-77